sensor_id;sensor_type;location;lat;lon;timestamp;pressure;altitude;pressure_sealevel;temperature;humidity
51081;BME280;37130;55.670;37.596;2023-01-25T00:01:02;101078.16;;;-0.62;100.00
51081;BME280;37130;55.670;37.596;2023-01-25T00:03:30;101076.38;;;-0.64;100.00
51081;BME280;37130;55.670;37.596;2023-01-25T00:05:59;101061.41;;;-0.75;100.00
51081;BME280;37130;55.670;37.596;2023-01-25T00:08:28;101064.78;;;-0.79;100.00
51081;BME280;37130;55.670;37.596;2023-01-25T00:10:55;101046.38;;;-0.88;100.00
51081;BME280;37130;55.670;37.596;2023-01-25T00:13:25;101035.91;;;-0.91;100.00
51081;BME280;37130;55.670;37.596;2023-01-25T00:15:53;101064.06;;;-0.73;100.00
51081;BME280;37130;55.670;37.596;2023-01-25T00:18:20;100983.28;;;-1.19;100.00
51081;BME280;37130;55.670;37.596;2023-01-25T00:20:48;101041.41;;;-0.77;100.00
51081;BME280;37130;55.670;37.596;2023-01-25T00:23:16;101050.16;;;-0.74;100.00
51081;BME280;37130;55.670;37.596;2023-01-25T00:25:43;101053.66;;;-0.72;100.00
51081;BME280;37130;55.670;37.596;2023-01-25T00:28:11;101048.41;;;-0.75;100.00
51081;BME280;37130;55.670;37.596;2023-01-25T00:30:42;101034.53;;;-0.75;100.00
51081;BME280;37130;55.670;37.596;2023-01-25T00:35:44;100888.81;;;-1.60;100.00
51081;BME280;37130;55.670;37.596;2023-01-25T00:38:29;101036.53;;;-0.62;100.00
51081;BME280;37130;55.670;37.596;2023-01-25T00:41:00;101033.22;;;-0.55;100.00
51081;BME280;37130;55.670;37.596;2023-01-25T00:43:27;100933.09;;;-1.18;100.00
51081;BME280;37130;55.670;37.596;2023-01-25T00:46:01;101031.28;;;-0.63;100.00
51081;BME280;37130;55.670;37.596;2023-01-25T00:48:29;101022.59;;;-0.65;100.00
51081;BME280;37130;55.670;37.596;2023-01-25T00:51:02;100966.19;;;-1.09;100.00
51081;BME280;37130;55.670;37.596;2023-01-25T00:53:30;101013.88;;;-0.68;100.00
51081;BME280;37130;55.670;37.596;2023-01-25T00:55:57;100984.09;;;-0.82;100.00
51081;BME280;37130;55.670;37.596;2023-01-25T00:58:25;100913.94;;;-1.21;100.00
51081;BME280;37130;55.670;37.596;2023-01-25T01:00:54;101018.34;;;-0.62;100.00
51081;BME280;37130;55.670;37.596;2023-01-25T01:03:22;100986.75;;;-0.79;100.00
51081;BME280;37130;55.670;37.596;2023-01-25T01:06:10;101014.03;;;-0.60;100.00
51081;BME280;37130;55.670;37.596;2023-01-25T01:08:39;101005.28;;;-0.63;100.00
51081;BME280;37130;55.670;37.596;2023-01-25T01:11:09;100923.56;;;-1.17;100.00
51081;BME280;37130;55.670;37.596;2023-01-25T01:13:37;101009.50;;;-0.70;100.00
51081;BME280;37130;55.670;37.596;2023-01-25T01:16:08;101012.03;;;-0.73;100.00
51081;BME280;37130;55.670;37.596;2023-01-25T01:18:43;100910.41;;;-1.23;100.00
51081;BME280;37130;55.670;37.596;2023-01-25T01:21:13;100909.59;;;-1.21;100.00
51081;BME280;37130;55.670;37.596;2023-01-25T01:23:40;100945.50;;;-1.04;100.00
51081;BME280;37130;55.670;37.596;2023-01-25T01:26:11;100994.81;;;-0.68;100.00
51081;BME280;37130;55.670;37.596;2023-01-25T01:28:39;100923.63;;;-1.14;100.00
51081;BME280;37130;55.670;37.596;2023-01-25T01:31:12;100859.59;;;-1.51;100.00
51081;BME280;37130;55.670;37.596;2023-01-25T01:33:48;100978.22;;;-0.72;100.00
51081;BME280;37130;55.670;37.596;2023-01-25T01:36:17;100782.91;;;-1.73;100.00
51081;BME280;37130;55.670;37.596;2023-01-25T01:38:45;100970.03;;;-0.49;100.00
51081;BME280;37130;55.670;37.596;2023-01-25T01:41:13;100976.22;;;-0.42;100.00
51081;BME280;37130;55.670;37.596;2023-01-25T01:43:42;100970.13;;;-0.43;100.00
51081;BME280;37130;55.670;37.596;2023-01-25T01:46:16;100863.91;;;-1.11;100.00
51081;BME280;37130;55.670;37.596;2023-01-25T01:49:36;100972.59;;;-0.51;100.00
51081;BME280;37130;55.670;37.596;2023-01-25T01:51:50;100972.53;;;-0.54;100.00
51081;BME280;37130;55.670;37.596;2023-01-25T01:57:20;100961.19;;;-0.57;100.00
51081;BME280;37130;55.670;37.596;2023-01-25T01:59:57;100953.34;;;-0.59;100.00
51081;BME280;37130;55.670;37.596;2023-01-25T02:02:30;100961.16;;;-0.59;100.00
51081;BME280;37130;55.670;37.596;2023-01-25T02:05:00;100947.88;;;-0.73;100.00
51081;BME280;37130;55.670;37.596;2023-01-25T02:07:35;100952.31;;;-0.67;100.00
51081;BME280;37130;55.670;37.596;2023-01-25T02:10:08;100948.03;;;-0.65;100.00
51081;BME280;37130;55.670;37.596;2023-01-25T02:12:40;100946.41;;;-0.60;100.00
51081;BME280;37130;55.670;37.596;2023-01-25T02:15:09;100955.09;;;-0.58;100.00
51081;BME280;37130;55.670;37.596;2023-01-25T02:17:39;100810.09;;;-1.59;100.00
51081;BME280;37130;55.670;37.596;2023-01-25T02:20:31;100959.31;;;-0.64;100.00
51081;BME280;37130;55.670;37.596;2023-01-25T02:25:37;100970.22;;;-0.82;100.00
51081;BME280;37130;55.670;37.596;2023-01-25T02:28:26;100975.75;;;-0.67;100.00
51081;BME280;37130;55.670;37.596;2023-01-25T02:30:54;100882.03;;;-1.14;100.00
51081;BME280;37130;55.670;37.596;2023-01-25T02:33:24;100849.09;;;-1.14;100.00
51081;BME280;37130;55.670;37.596;2023-01-25T02:35:59;100942.88;;;-0.62;100.00
51081;BME280;37130;55.670;37.596;2023-01-25T02:38:31;100957.84;;;-0.50;100.00
51081;BME280;37130;55.670;37.596;2023-01-25T02:41:07;100943.81;;;-0.58;100.00
51081;BME280;37130;55.670;37.596;2023-01-25T02:43:39;100859.72;;;-1.03;100.00
51081;BME280;37130;55.670;37.596;2023-01-25T02:46:31;100959.66;;;-0.46;100.00
51081;BME280;37130;55.670;37.596;2023-01-25T02:49:01;100916.53;;;-0.79;100.00
51081;BME280;37130;55.670;37.596;2023-01-25T02:51:31;100962.19;;;-0.51;100.00
51081;BME280;37130;55.670;37.596;2023-01-25T02:53:59;100976.88;;;-0.53;100.00
51081;BME280;37130;55.670;37.596;2023-01-25T02:56:28;100970.06;;;-0.46;100.00
51081;BME280;37130;55.670;37.596;2023-01-25T02:58:56;100971.75;;;-0.48;100.00
51081;BME280;37130;55.670;37.596;2023-01-25T03:01:24;100969.97;;;-0.52;100.00
51081;BME280;37130;55.670;37.596;2023-01-25T03:03:52;100940.88;;;-0.75;100.00
51081;BME280;37130;55.670;37.596;2023-01-25T03:06:20;100906.81;;;-0.88;100.00
51081;BME280;37130;55.670;37.596;2023-01-25T03:08:48;100952.44;;;-0.61;100.00
51081;BME280;37130;55.670;37.596;2023-01-25T03:11:16;100969.38;;;-0.37;100.00
51081;BME280;37130;55.670;37.596;2023-01-25T03:13:44;100872.16;;;-0.86;100.00
51081;BME280;37130;55.670;37.596;2023-01-25T03:16:12;100964.97;;;-0.41;100.00
51081;BME280;37130;55.670;37.596;2023-01-25T03:18:43;100962.22;;;-0.48;100.00
51081;BME280;37130;55.670;37.596;2023-01-25T03:21:16;100959.56;;;-0.52;100.00
51081;BME280;37130;55.670;37.596;2023-01-25T03:23:46;100873.63;;;-1.01;100.00
51081;BME280;37130;55.670;37.596;2023-01-25T03:26:21;100949.00;;;-0.58;100.00
51081;BME280;37130;55.670;37.596;2023-01-25T03:29:12;100943.03;;;-0.54;100.00
51081;BME280;37130;55.670;37.596;2023-01-25T03:31:42;100944.75;;;-0.55;100.00
51081;BME280;37130;55.670;37.596;2023-01-25T03:34:11;100786.94;;;-1.47;100.00
51081;BME280;37130;55.670;37.596;2023-01-25T03:36:41;100935.09;;;-0.60;100.00
51081;BME280;37130;55.670;37.596;2023-01-25T03:39:09;100941.19;;;-0.60;100.00
51081;BME280;37130;55.670;37.596;2023-01-25T03:41:40;100919.31;;;-0.70;100.00
51081;BME280;37130;55.670;37.596;2023-01-25T03:44:10;100923.81;;;-0.61;100.00
51081;BME280;37130;55.670;37.596;2023-01-25T03:46:39;100929.88;;;-0.62;100.00
51081;BME280;37130;55.670;37.596;2023-01-25T03:49:08;100942.91;;;-0.60;100.00
51081;BME280;37130;55.670;37.596;2023-01-25T03:51:35;100946.41;;;-0.60;100.00
51081;BME280;37130;55.670;37.596;2023-01-25T03:54:04;100939.44;;;-0.61;100.00
51081;BME280;37130;55.670;37.596;2023-01-25T03:56:34;100928.75;;;-0.75;100.00
51081;BME280;37130;55.670;37.596;2023-01-25T03:59:14;100837.66;;;-1.23;100.00
51081;BME280;37130;55.670;37.596;2023-01-25T04:01:43;100860.38;;;-1.13;100.00
51081;BME280;37130;55.670;37.596;2023-01-25T04:04:11;100946.25;;;-0.68;100.00
51081;BME280;37130;55.670;37.596;2023-01-25T04:06:44;100950.66;;;-0.63;100.00
51081;BME280;37130;55.670;37.596;2023-01-25T04:09:12;100923.50;;;-0.78;100.00
51081;BME280;37130;55.670;37.596;2023-01-25T04:11:49;100920.00;;;-0.80;100.00
51081;BME280;37130;55.670;37.596;2023-01-25T04:14:18;100947.19;;;-0.64;100.00
51081;BME280;37130;55.670;37.596;2023-01-25T04:17:05;100938.50;;;-0.64;100.00
51081;BME280;37130;55.670;37.596;2023-01-25T04:19:41;100930.53;;;-0.72;100.00
51081;BME280;37130;55.670;37.596;2023-01-25T04:22:13;100829.72;;;-1.31;100.00
51081;BME280;37130;55.670;37.596;2023-01-25T04:24:44;100898.41;;;-0.76;100.00
51081;BME280;37130;55.670;37.596;2023-01-25T04:27:12;100928.25;;;-0.55;100.00
51081;BME280;37130;55.670;37.596;2023-01-25T04:29:50;100927.31;;;-0.59;100.00
51081;BME280;37130;55.670;37.596;2023-01-25T04:32:20;100798.44;;;-1.34;100.00
51081;BME280;37130;55.670;37.596;2023-01-25T04:34:47;100939.47;;;-0.59;100.00
51081;BME280;37130;55.670;37.596;2023-01-25T04:37:19;100915.72;;;-0.76;100.00
51081;BME280;37130;55.670;37.596;2023-01-25T04:39:52;100946.31;;;-0.63;100.00
51081;BME280;37130;55.670;37.596;2023-01-25T04:42:21;100829.28;;;-1.08;100.00
51081;BME280;37130;55.670;37.596;2023-01-25T04:44:53;100964.63;;;-0.58;100.00
51081;BME280;37130;55.670;37.596;2023-01-25T04:47:21;100948.03;;;-0.63;100.00
51081;BME280;37130;55.670;37.596;2023-01-25T04:49:48;100944.53;;;-0.67;100.00
51081;BME280;37130;55.670;37.596;2023-01-25T04:52:19;100949.72;;;-0.67;100.00
51081;BME280;37130;55.670;37.596;2023-01-25T04:54:46;100948.78;;;-0.71;100.00
51081;BME280;37130;55.670;37.596;2023-01-25T04:57:15;100955.63;;;-0.74;100.00
51081;BME280;37130;55.670;37.596;2023-01-25T04:59:48;100950.44;;;-0.74;100.00
51081;BME280;37130;55.670;37.596;2023-01-25T05:02:15;100955.63;;;-0.76;100.00
51081;BME280;37130;55.670;37.596;2023-01-25T05:04:44;100956.44;;;-0.78;100.00
51081;BME280;37130;55.670;37.596;2023-01-25T05:07:11;100954.78;;;-0.75;100.00
51081;BME280;37130;55.670;37.596;2023-01-25T05:09:39;100963.50;;;-0.71;100.00
51081;BME280;37130;55.670;37.596;2023-01-25T05:12:08;100945.28;;;-0.73;100.00
51081;BME280;37130;55.670;37.596;2023-01-25T05:15:04;100956.56;;;-0.72;100.00
51081;BME280;37130;55.670;37.596;2023-01-25T05:17:32;100939.94;;;-0.79;100.00
51081;BME280;37130;55.670;37.596;2023-01-25T05:19:59;100946.97;;;-0.75;100.00
51081;BME280;37130;55.670;37.596;2023-01-25T05:22:28;100936.34;;;-0.84;100.00
51081;BME280;37130;55.670;37.596;2023-01-25T05:24:56;100881.00;;;-1.22;100.00
51081;BME280;37130;55.670;37.596;2023-01-25T05:27:25;100896.59;;;-1.21;100.00
51081;BME280;37130;55.670;37.596;2023-01-25T05:29:52;100961.59;;;-0.80;100.00
51081;BME280;37130;55.670;37.596;2023-01-25T05:32:26;100891.78;;;-1.04;100.00
51081;BME280;37130;55.670;37.596;2023-01-25T05:34:53;100951.47;;;-0.66;100.00
51081;BME280;37130;55.670;37.596;2023-01-25T05:37:21;100961.00;;;-0.67;100.00
51081;BME280;37130;55.670;37.596;2023-01-25T05:39:56;100963.44;;;-0.76;100.00
51081;BME280;37130;55.670;37.596;2023-01-25T05:42:25;100872.78;;;-1.42;100.00
51081;BME280;37130;55.670;37.596;2023-01-25T05:44:53;100959.06;;;-0.77;100.00
51081;BME280;37130;55.670;37.596;2023-01-25T05:47:22;100800.41;;;-1.66;100.00
51081;BME280;37130;55.670;37.596;2023-01-25T05:49:50;100933.84;;;-0.81;100.00
51081;BME280;37130;55.670;37.596;2023-01-25T05:52:26;100952.16;;;-0.75;100.00
51081;BME280;37130;55.670;37.596;2023-01-25T05:54:55;100936.34;;;-0.85;100.00
51081;BME280;37130;55.670;37.596;2023-01-25T05:57:23;100874.88;;;-1.24;100.00
51081;BME280;37130;55.670;37.596;2023-01-25T05:59:51;100930.34;;;-0.81;100.00
51081;BME280;37130;55.670;37.596;2023-01-25T06:02:19;100891.78;;;-1.02;100.00
51081;BME280;37130;55.670;37.596;2023-01-25T06:04:47;100898.63;;;-1.07;100.00
51081;BME280;37130;55.670;37.596;2023-01-25T06:07:14;100954.00;;;-0.69;100.00
51081;BME280;37130;55.670;37.596;2023-01-25T06:09:42;100857.63;;;-1.21;100.00
51081;BME280;37130;55.670;37.596;2023-01-25T06:12:10;100954.09;;;-0.64;100.00
51081;BME280;37130;55.670;37.596;2023-01-25T06:14:38;100969.81;;;-0.60;100.00
51081;BME280;37130;55.670;37.596;2023-01-25T06:17:05;100953.34;;;-0.59;100.00
51081;BME280;37130;55.670;37.596;2023-01-25T06:19:51;100948.09;;;-0.60;100.00
51081;BME280;37130;55.670;37.596;2023-01-25T06:22:25;100946.41;;;-0.58;100.00
51081;BME280;37130;55.670;37.596;2023-01-25T06:24:52;100949.06;;;-0.57;100.00
51081;BME280;37130;55.670;37.596;2023-01-25T06:27:20;100939.38;;;-0.64;100.00
51081;BME280;37130;55.670;37.596;2023-01-25T06:29:47;100939.44;;;-0.61;100.00
51081;BME280;37130;55.670;37.596;2023-01-25T06:32:15;100945.59;;;-0.57;100.00
51081;BME280;37130;55.670;37.596;2023-01-25T06:34:43;100946.41;;;-0.60;100.00
51081;BME280;37130;55.670;37.596;2023-01-25T06:37:18;100940.38;;;-0.57;100.00
51081;BME280;37130;55.670;37.596;2023-01-25T06:39:47;100924.53;;;-0.70;100.00
51081;BME280;37130;55.670;37.596;2023-01-25T06:42:15;100913.94;;;-0.79;100.00
51081;BME280;37130;55.670;37.596;2023-01-25T06:44:47;100885.81;;;-0.98;100.00
51081;BME280;37130;55.670;37.596;2023-01-25T06:47:26;100771.94;;;-1.60;100.00
51081;BME280;37130;55.670;37.596;2023-01-25T06:50:06;100950.84;;;-0.54;100.00
51081;BME280;37130;55.670;37.596;2023-01-25T06:52:53;100915.78;;;-0.73;100.00
51081;BME280;37130;55.670;37.596;2023-01-25T06:55:35;100847.22;;;-1.21;100.00
51081;BME280;37130;55.670;37.596;2023-01-25T06:58:14;100933.25;;;-0.68;100.00
51081;BME280;37130;55.670;37.596;2023-01-25T07:00:57;100877.66;;;-1.17;100.00
51081;BME280;37130;55.670;37.596;2023-01-25T07:03:40;100929.53;;;-0.80;100.00
51081;BME280;37130;55.670;37.596;2023-01-25T07:06:22;100958.44;;;-0.63;100.00
51081;BME280;37130;55.670;37.596;2023-01-25T07:09:08;100951.44;;;-0.68;100.00
51081;BME280;37130;55.670;37.596;2023-01-25T07:11:51;100957.69;;;-0.59;100.00
51081;BME280;37130;55.670;37.596;2023-01-25T07:14:33;100781.56;;;-1.56;100.00
51081;BME280;37130;55.670;37.596;2023-01-25T07:17:14;100939.31;;;-0.67;100.00
51081;BME280;37130;55.670;37.596;2023-01-25T07:19:56;100958.59;;;-0.56;100.00
51081;BME280;37130;55.670;37.596;2023-01-25T07:22:37;100945.44;;;-0.63;100.00
51081;BME280;37130;55.670;37.596;2023-01-25T07:25:20;100948.09;;;-0.62;100.00
51081;BME280;37130;55.670;37.596;2023-01-25T07:28:01;100813.94;;;-1.40;100.00
51081;BME280;37130;55.670;37.596;2023-01-25T07:30:44;100808.69;;;-1.43;100.00
51081;BME280;37130;55.670;37.596;2023-01-25T07:33:21;100943.75;;;-0.61;100.00
51081;BME280;37130;55.670;37.596;2023-01-25T07:35:59;100955.06;;;-0.59;100.00
51081;BME280;37130;55.670;37.596;2023-01-25T07:38:28;100843.00;;;-1.16;100.00
51081;BME280;37130;55.670;37.596;2023-01-25T07:40:56;100944.63;;;-0.62;100.00
51081;BME280;37130;55.670;37.596;2023-01-25T07:43:26;100957.53;;;-0.67;100.00
51081;BME280;37130;55.670;37.596;2023-01-25T07:46:03;100956.66;;;-0.68;100.00
51081;BME280;37130;55.670;37.596;2023-01-25T07:48:50;100894.50;;;-0.98;100.00
51081;BME280;37130;55.670;37.596;2023-01-25T07:51:29;100954.72;;;-0.76;100.00
51081;BME280;37130;55.670;37.596;2023-01-25T07:54:11;100852.44;;;-1.21;100.00
51081;BME280;37130;55.670;37.596;2023-01-25T07:56:50;100910.59;;;-0.73;100.00
51081;BME280;37130;55.670;37.596;2023-01-25T07:59:30;100832.66;;;-1.14;100.00
51081;BME280;37130;55.670;37.596;2023-01-25T08:02:12;100761.44;;;-1.66;100.00
51081;BME280;37130;55.670;37.596;2023-01-25T08:04:53;100853.75;;;-0.97;100.00
51081;BME280;37130;55.670;37.596;2023-01-25T08:07:33;100925.78;;;-0.49;100.00
51081;BME280;37130;55.670;37.596;2023-01-25T08:10:14;100942.44;;;-0.39;100.00
51081;BME280;37130;55.670;37.596;2023-01-25T08:12:51;100929.41;;;-0.39;100.00
51081;BME280;37130;55.670;37.596;2023-01-25T08:15:19;100924.16;;;-0.42;100.00
51081;BME280;37130;55.670;37.596;2023-01-25T08:17:46;100935.66;;;-0.31;100.00
51081;BME280;37130;55.670;37.596;2023-01-25T08:20:14;100930.66;;;-0.20;100.00
51081;BME280;37130;55.670;37.596;2023-01-25T08:22:42;100931.66;;;-0.11;100.00
51081;BME280;37130;55.670;37.596;2023-01-25T08:25:10;100827.41;;;-0.69;100.00
51081;BME280;37130;55.670;37.596;2023-01-25T08:27:38;100926.53;;;-0.08;100.00
51081;BME280;37130;55.670;37.596;2023-01-25T08:30:07;100790.63;;;-0.90;100.00
51081;BME280;37130;55.670;37.596;2023-01-25T08:32:34;100930.00;;;-0.06;100.00
51081;BME280;37130;55.670;37.596;2023-01-25T08:35:04;100820.28;;;-0.79;100.00
51081;BME280;37130;55.670;37.596;2023-01-25T08:37:32;100937.63;;;-0.16;100.00
51081;BME280;37130;55.670;37.596;2023-01-25T08:40:00;100922.03;;;-0.16;100.00
51081;BME280;37130;55.670;37.596;2023-01-25T08:42:29;100924.53;;;-0.23;100.00
51081;BME280;37130;55.670;37.596;2023-01-25T08:44:56;100932.38;;;-0.19;100.00
51081;BME280;37130;55.670;37.596;2023-01-25T08:47:24;100921.00;;;-0.26;100.00
51081;BME280;37130;55.670;37.596;2023-01-25T08:49:52;100922.19;;;-0.06;100.00
51081;BME280;37130;55.670;37.596;2023-01-25T08:52:21;100886.47;;;-0.14;100.00
51081;BME280;37130;55.670;37.596;2023-01-25T08:54:49;100834.59;;;-0.55;100.00
51081;BME280;37130;55.670;37.596;2023-01-25T08:57:17;100896.03;;;-0.13;100.00
51081;BME280;37130;55.670;37.596;2023-01-25T08:59:45;100902.19;;;-0.10;100.00
51081;BME280;37130;55.670;37.596;2023-01-25T09:02:12;100791.91;;;-0.68;100.00
51081;BME280;37130;55.670;37.596;2023-01-25T09:04:40;100885.53;;;-0.19;100.00
51081;BME280;37130;55.670;37.596;2023-01-25T09:07:10;100883.91;;;-0.11;100.00
51081;BME280;37130;55.670;37.596;2023-01-25T09:09:38;100886.69;;;-0.02;100.00
51081;BME280;37130;55.670;37.596;2023-01-25T09:12:05;100879.75;;;-0.02;100.00
51081;BME280;37130;55.670;37.596;2023-01-25T09:14:35;100859.47;;;-0.21;100.00
51081;BME280;37130;55.670;37.596;2023-01-25T09:17:04;100874.34;;;-0.14;100.00
51081;BME280;37130;55.670;37.596;2023-01-25T09:19:32;100754.25;;;-0.89;100.00
51081;BME280;37130;55.670;37.596;2023-01-25T09:21:59;100877.81;;;-0.15;100.00
51081;BME280;37130;55.670;37.596;2023-01-25T09:24:27;100871.81;;;-0.09;100.00
51081;BME280;37130;55.670;37.596;2023-01-25T09:26:54;100866.59;;;-0.09;100.00
51081;BME280;37130;55.670;37.596;2023-01-25T09:29:26;100781.53;;;-0.65;100.00
51081;BME280;37130;55.670;37.596;2023-01-25T09:31:53;100864.75;;;-0.18;100.00
51081;BME280;37130;55.670;37.596;2023-01-25T09:34:30;100834.94;;;-0.35;100.00
51081;BME280;37130;55.670;37.596;2023-01-25T09:36:58;100779.72;;;-0.69;100.00
51081;BME280;37130;55.670;37.596;2023-01-25T09:39:25;100854.19;;;-0.24;100.00
51081;BME280;37130;55.670;37.596;2023-01-25T09:47:24;100704.47;;;-1.12;100.00
51081;BME280;37130;55.670;37.596;2023-01-25T09:55:53;100819.53;;;-0.23;100.00
51081;BME280;37130;55.670;37.596;2023-01-25T09:58:26;100825.41;;;-0.35;100.00
51081;BME280;37130;55.670;37.596;2023-01-25T10:06:35;100810.44;;;-0.48;100.00
51081;BME280;37130;55.670;37.596;2023-01-25T10:09:12;100813.75;;;-0.57;100.00
51081;BME280;37130;55.670;37.596;2023-01-25T10:11:44;100814.69;;;-0.53;100.00
51081;BME280;37130;55.670;37.596;2023-01-25T10:14:14;100793.78;;;-0.59;100.00
51081;BME280;37130;55.670;37.596;2023-01-25T10:19:28;100784.19;;;-0.60;100.00
51081;BME280;37130;55.670;37.596;2023-01-25T10:22:18;100771.66;;;-0.84;100.00
51081;BME280;37130;55.670;37.596;2023-01-25T10:30:35;100796.69;;;-0.41;100.00
51081;BME280;37130;55.670;37.596;2023-01-25T10:33:17;100791.53;;;-0.38;100.00
51081;BME280;37130;55.670;37.596;2023-01-25T10:35:48;100791.31;;;-0.50;100.00
51081;BME280;37130;55.670;37.596;2023-01-25T10:38:31;100769.09;;;-0.81;100.00
51081;BME280;37130;55.670;37.596;2023-01-25T10:41:11;100793.69;;;-0.65;100.00
51081;BME280;37130;55.670;37.596;2023-01-25T10:43:41;100679.84;;;-1.32;100.00
51081;BME280;37130;55.670;37.596;2023-01-25T10:46:17;100800.03;;;-0.50;100.00
51081;BME280;37130;55.670;37.596;2023-01-25T10:48:46;100680.22;;;-1.11;100.00
51081;BME280;37130;55.670;37.596;2023-01-25T10:51:32;100676.81;;;-1.05;100.00
51081;BME280;37130;55.670;37.596;2023-01-25T10:54:03;100772.16;;;-0.55;100.00
51081;BME280;37130;55.670;37.596;2023-01-25T10:56:33;100769.72;;;-0.46;100.00
51081;BME280;37130;55.670;37.596;2023-01-25T10:59:27;100769.66;;;-0.49;100.00
51081;BME280;37130;55.670;37.596;2023-01-25T11:02:20;100735.69;;;-0.58;100.00
51081;BME280;37130;55.670;37.596;2023-01-25T11:04:47;100735.59;;;-0.63;100.00
51081;BME280;37130;55.670;37.596;2023-01-25T11:07:27;100744.59;;;-0.42;100.00
51081;BME280;37130;55.670;37.596;2023-01-25T11:09:55;100631.97;;;-0.93;100.00
51081;BME280;37130;55.670;37.596;2023-01-25T11:12:22;100748.41;;;-0.20;100.00
51081;BME280;37130;55.670;37.596;2023-01-25T11:14:50;100750.31;;;-0.10;100.00
51081;BME280;37130;55.670;37.596;2023-01-25T11:17:26;100746.03;;;-0.04;100.00
51081;BME280;37130;55.670;37.596;2023-01-25T11:20:16;100746.84;;;-0.09;100.00
51081;BME280;37130;55.670;37.596;2023-01-25T11:22:55;100725.03;;;-0.17;100.00
51081;BME280;37130;55.670;37.596;2023-01-25T11:25:24;100732.94;;;-0.08;100.00
51081;BME280;37130;55.670;37.596;2023-01-25T11:28:21;100712.72;;;-0.28;100.00
51081;BME280;37130;55.670;37.596;2023-01-25T11:30:51;100722.34;;;-0.24;100.00
51081;BME280;37130;55.670;37.596;2023-01-25T11:33:20;100725.81;;;-0.22;100.00
51081;BME280;37130;55.670;37.596;2023-01-25T11:36:09;100716.31;;;-0.19;100.00
51081;BME280;37130;55.670;37.596;2023-01-25T11:38:51;100704.00;;;-0.30;100.00
51081;BME280;37130;55.670;37.596;2023-01-25T11:55:44;100705.81;;;-0.24;100.00
51081;BME280;37130;55.670;37.596;2023-01-25T12:07:01;100709.94;;;-0.40;100.00
51081;BME280;37130;55.670;37.596;2023-01-25T12:09:59;100706.34;;;-0.48;100.00
51081;BME280;37130;55.670;37.596;2023-01-25T12:12:43;100706.34;;;-0.48;100.00
51081;BME280;37130;55.670;37.596;2023-01-25T12:15:19;100709.00;;;-0.47;100.00
51081;BME280;37130;55.670;37.596;2023-01-25T12:18:24;100710.59;;;-0.53;100.00
51081;BME280;37130;55.670;37.596;2023-01-25T12:26:29;100698.31;;;-0.63;100.00
51081;BME280;37130;55.670;37.596;2023-01-25T12:35:19;100676.53;;;-0.69;100.00
51081;BME280;37130;55.670;37.596;2023-01-25T12:37:52;100636.38;;;-0.89;100.00
51081;BME280;37130;55.670;37.596;2023-01-25T12:43:33;100698.13;;;-0.74;100.00
51081;BME280;37130;55.670;37.596;2023-01-25T12:46:12;100698.06;;;-0.80;100.00
51081;BME280;37130;55.670;37.596;2023-01-25T12:48:45;100688.47;;;-0.83;100.00
51081;BME280;37130;55.670;37.596;2023-01-25T12:51:16;100564.47;;;-1.43;100.00
51081;BME280;37130;55.670;37.596;2023-01-25T12:53:45;100679.09;;;-0.73;100.00
51081;BME280;37130;55.670;37.596;2023-01-25T12:56:30;100676.63;;;-0.65;100.00
51081;BME280;37130;55.670;37.596;2023-01-25T12:59:05;100492.22;;;-1.67;100.00
51081;BME280;37130;55.670;37.596;2023-01-25T13:01:42;100664.50;;;-0.65;100.00
51081;BME280;37130;55.670;37.596;2023-01-25T13:09:44;100669.56;;;-0.71;100.00
51081;BME280;37130;55.670;37.596;2023-01-25T13:12:15;100662.56;;;-0.78;100.00
51081;BME280;37130;55.670;37.596;2023-01-25T13:14:43;100587.22;;;-1.28;100.00
51081;BME280;37130;55.670;37.596;2023-01-25T13:17:21;100655.63;;;-0.78;100.00
51081;BME280;37130;55.670;37.596;2023-01-25T13:19:51;100653.97;;;-0.71;100.00
51081;BME280;37130;55.670;37.596;2023-01-25T13:27:42;100647.91;;;-0.72;100.00
51081;BME280;37130;55.670;37.596;2023-01-25T13:30:28;100646.34;;;-0.59;100.00
51081;BME280;37130;55.670;37.596;2023-01-25T13:32:58;100648.00;;;-0.64;100.00
51081;BME280;37130;55.670;37.596;2023-01-25T13:35:40;100572.72;;;-1.14;100.00
51081;BME280;37130;55.670;37.596;2023-01-25T13:38:21;100624.44;;;-0.75;100.00
51081;BME280;37130;55.670;37.596;2023-01-25T13:41:07;100624.34;;;-0.82;100.00
51081;BME280;37130;55.670;37.596;2023-01-25T13:43:44;100612.13;;;-0.88;100.00
51081;BME280;37130;55.670;37.596;2023-01-25T13:46:15;100612.97;;;-0.89;100.00
51081;BME280;37130;55.670;37.596;2023-01-25T13:48:51;100501.84;;;-1.60;100.00
51081;BME280;37130;55.670;37.596;2023-01-25T13:51:21;100497.31;;;-1.72;100.00
51081;BME280;37130;55.670;37.596;2023-01-25T13:53:57;100564.72;;;-1.28;100.00
51081;BME280;37130;55.670;37.596;2023-01-25T13:56:30;100583.16;;;-1.13;100.00
51081;BME280;37130;55.670;37.596;2023-01-25T13:58:58;100594.38;;;-1.15;100.00
51081;BME280;37130;55.670;37.596;2023-01-25T14:01:28;100497.38;;;-1.69;100.00
51081;BME280;37130;55.670;37.596;2023-01-25T14:03:58;100580.44;;;-1.19;100.00
51081;BME280;37130;55.670;37.596;2023-01-25T14:06:33;100566.38;;;-1.33;100.00
51081;BME280;37130;55.670;37.596;2023-01-25T14:09:10;100576.94;;;-1.22;100.00
51081;BME280;37130;55.670;37.596;2023-01-25T14:11:50;100564.63;;;-1.33;100.00
51081;BME280;37130;55.670;37.596;2023-01-25T14:14:31;100564.53;;;-1.39;100.00
51081;BME280;37130;55.670;37.596;2023-01-25T14:19:38;100562.66;;;-1.47;100.00
51081;BME280;37130;55.670;37.596;2023-01-25T14:22:25;100568.63;;;-1.55;100.00
51081;BME280;37130;55.670;37.596;2023-01-25T14:25:13;100524.63;;;-1.94;100.00